createdAt,value
2022-12-31T00:01:15.510Z,73.87
2022-12-31T00:03:44.118Z,73.87
2022-12-31T00:06:33.923Z,73.91
2022-12-31T00:09:05.673Z,73.87
2022-12-31T00:11:35.657Z,73.95
2022-12-31T00:14:03.995Z,73.91
2022-12-31T00:16:36.927Z,73.95
2022-12-31T00:19:07.038Z,74.05
2022-12-31T00:21:35.907Z,74.28
2022-12-31T00:24:05.577Z,74.17
2022-12-31T00:26:35.034Z,74.17
2022-12-31T00:29:04.619Z,74.30
2022-12-31T00:31:35.634Z,74.50
2022-12-31T00:34:03.808Z,74.36
2022-12-31T00:36:35.891Z,74.42
2022-12-31T00:39:07.072Z,74.38
2022-12-31T00:41:35.913Z,74.42
2022-12-31T00:44:04.559Z,74.46
2022-12-31T00:46:32.972Z,74.54
2022-12-31T00:49:01.129Z,74.51
2022-12-31T00:51:29.276Z,74.50
2022-12-31T00:53:58.099Z,74.46
2022-12-31T00:56:29.100Z,74.43
2022-12-31T00:58:57.792Z,74.29
2022-12-31T01:01:31.309Z,74.33
2022-12-31T01:04:06.265Z,74.50
2022-12-31T01:06:35.046Z,74.41
2022-12-31T01:09:04.771Z,74.42
2022-12-31T01:11:33.250Z,74.32
2022-12-31T01:14:11.416Z,74.31
2022-12-31T01:16:43.393Z,74.34
2022-12-31T01:19:18.399Z,74.39
2022-12-31T01:21:47.314Z,74.35
2022-12-31T01:24:15.778Z,74.24
2022-12-31T01:26:45.004Z,74.03
2022-12-31T01:29:14.002Z,74.14
2022-12-31T01:31:42.336Z,73.94
2022-12-31T01:34:10.327Z,73.73
2022-12-31T01:36:38.790Z,73.67
2022-12-31T01:39:08.826Z,73.50
2022-12-31T01:41:43.420Z,73.46
2022-12-31T01:44:11.468Z,73.18
2022-12-31T01:46:48.079Z,73.07
2022-12-31T01:49:41.020Z,72.84
2022-12-31T01:52:31.878Z,72.98
2022-12-31T01:55:05.936Z,72.91
2022-12-31T01:57:35.537Z,72.64
2022-12-31T02:00:05.585Z,72.55
2022-12-31T02:02:34.451Z,72.42
2022-12-31T02:05:13.818Z,72.20
2022-12-31T02:07:43.224Z,72.18
2022-12-31T02:10:11.415Z,72.12
2022-12-31T02:12:40.287Z,72.11
2022-12-31T02:15:08.908Z,71.76
2022-12-31T02:18:13.223Z,71.78
2022-12-31T02:20:58.415Z,71.93
2022-12-31T02:23:29.136Z,71.97
2022-12-31T02:26:39.037Z,71.81
2022-12-31T02:29:25.163Z,71.90
2022-12-31T02:32:01.595Z,71.73
2022-12-31T02:34:44.680Z,71.75
2022-12-31T02:37:16.235Z,71.79
2022-12-31T02:39:44.889Z,71.79
2022-12-31T02:42:12.922Z,71.66
2022-12-31T02:44:42.401Z,71.56
2022-12-31T02:47:10.664Z,71.22
2022-12-31T02:49:45.250Z,71.30
2022-12-31T02:52:28.001Z,71.28
2022-12-31T02:55:33.196Z,71.23
2022-12-31T02:58:57.133Z,71.35
2022-12-31T03:01:49.390Z,71.64
2022-12-31T03:04:34.288Z,71.54
2022-12-31T03:07:07.839Z,71.71
2022-12-31T03:09:36.875Z,71.66
2022-12-31T03:12:26.741Z,71.68
2022-12-31T03:14:54.731Z,71.65
2022-12-31T03:17:23.122Z,71.43
2022-12-31T03:20:10.114Z,71.54
2022-12-31T03:22:41.545Z,71.50
2022-12-31T03:25:30.695Z,71.45
2022-12-31T03:27:59.690Z,71.70
2022-12-31T03:30:28.288Z,71.74
2022-12-31T03:32:57.081Z,71.82
2022-12-31T03:35:28.658Z,71.93
2022-12-31T03:37:56.911Z,71.87
2022-12-31T03:40:27.405Z,71.95
2022-12-31T03:42:56.032Z,71.95
2022-12-31T03:45:24.255Z,71.89
2022-12-31T03:47:52.581Z,71.68
2022-12-31T03:50:21.047Z,71.77
2022-12-31T03:52:49.109Z,71.77
2022-12-31T03:55:17.399Z,71.83
2022-12-31T03:57:45.542Z,72.11
2022-12-31T04:00:17.766Z,71.97
2022-12-31T04:02:49.796Z,72.22
2022-12-31T04:05:19.602Z,72.50
2022-12-31T04:07:48.112Z,72.38
2022-12-31T04:10:18.119Z,72.67
2022-12-31T04:12:46.476Z,72.58
2022-12-31T04:15:19.966Z,72.50
2022-12-31T04:17:48.674Z,72.57
2022-12-31T04:20:17.239Z,72.63
2022-12-31T04:22:45.434Z,72.61
2022-12-31T04:25:13.484Z,72.74
2022-12-31T04:27:43.792Z,72.75
2022-12-31T04:30:13.233Z,72.61
2022-12-31T04:32:41.705Z,72.75
2022-12-31T04:35:11.373Z,72.52
2022-12-31T04:37:39.351Z,72.54
2022-12-31T04:40:08.661Z,72.53
2022-12-31T04:42:37.143Z,72.54
2022-12-31T04:45:05.842Z,72.45
2022-12-31T04:47:33.917Z,72.82
2022-12-31T04:50:02.148Z,73.16
2022-12-31T04:52:30.183Z,73.63
2022-12-31T04:54:58.184Z,73.80
2022-12-31T04:57:26.147Z,74.16
2022-12-31T04:59:54.102Z,74.44
2022-12-31T05:02:22.211Z,74.51
2022-12-31T05:04:50.532Z,74.61
2022-12-31T05:07:18.942Z,74.87
2022-12-31T05:09:46.933Z,75.16
2022-12-31T05:12:14.944Z,75.27
2022-12-31T05:14:42.887Z,75.35
2022-12-31T05:17:10.913Z,75.53
2022-12-31T05:19:39.738Z,75.49
2022-12-31T05:22:26.546Z,75.61
2022-12-31T05:24:54.820Z,75.78
2022-12-31T05:27:23.140Z,75.69
2022-12-31T05:29:51.190Z,75.86
2022-12-31T05:32:19.181Z,75.97
2022-12-31T05:34:47.187Z,75.86
2022-12-31T05:37:15.144Z,75.96
2022-12-31T05:39:43.118Z,75.91
2022-12-31T05:42:11.104Z,75.82
2022-12-31T05:44:39.069Z,75.92
2022-12-31T05:47:07.035Z,75.86
2022-12-31T05:49:34.955Z,75.87
2022-12-31T05:52:02.896Z,75.86
2022-12-31T05:54:30.996Z,76.07
2022-12-31T05:56:59.339Z,76.16
2022-12-31T05:59:27.331Z,76.31
2022-12-31T06:01:55.400Z,76.40
2022-12-31T06:04:24.125Z,76.40
2022-12-31T06:06:52.630Z,76.51
2022-12-31T06:09:20.750Z,76.54
2022-12-31T06:11:48.755Z,76.52
2022-12-31T06:14:16.812Z,76.50
2022-12-31T06:16:44.763Z,76.32
2022-12-31T06:19:12.734Z,76.30
2022-12-31T06:21:40.705Z,76.31
2022-12-31T06:24:08.765Z,76.20
2022-12-31T06:26:36.892Z,76.24
2022-12-31T06:29:04.949Z,76.01
2022-12-31T06:31:33.066Z,75.95
2022-12-31T06:34:01.019Z,76.08
2022-12-31T06:36:29.068Z,76.11
2022-12-31T06:38:57.076Z,75.89
2022-12-31T06:41:25.121Z,75.91
2022-12-31T06:43:53.194Z,75.83
2022-12-31T06:46:21.190Z,75.73
2022-12-31T06:48:49.321Z,75.85
2022-12-31T06:51:19.482Z,75.66
2022-12-31T06:53:49.393Z,75.52
2022-12-31T06:56:33.439Z,75.56
2022-12-31T06:59:03.449Z,75.43
2022-12-31T07:01:31.404Z,75.40
2022-12-31T07:04:33.856Z,75.34
2022-12-31T07:07:12.118Z,75.25
2022-12-31T07:09:44.781Z,75.19
2022-12-31T07:12:27.927Z,75.10
2022-12-31T07:15:24.873Z,74.93
2022-12-31T07:18:15.104Z,75.01
2022-12-31T07:20:43.808Z,75.03
2022-12-31T07:23:12.137Z,74.85
2022-12-31T07:25:47.513Z,74.87
2022-12-31T07:28:44.796Z,74.77
2022-12-31T07:31:15.554Z,74.67
2022-12-31T07:34:25.015Z,74.42
2022-12-31T07:36:55.866Z,74.44
2022-12-31T07:39:46.729Z,74.44
2022-12-31T07:42:42.994Z,74.34
2022-12-31T07:45:30.608Z,74.29
2022-12-31T07:48:02.420Z,74.33
2022-12-31T07:50:31.688Z,74.33
2022-12-31T07:52:59.952Z,74.39
2022-12-31T07:55:28.408Z,74.47
2022-12-31T07:58:06.263Z,74.51
2022-12-31T08:00:34.551Z,74.80
2022-12-31T08:03:05.498Z,74.87
2022-12-31T08:05:51.345Z,74.93
2022-12-31T08:08:37.841Z,74.91
2022-12-31T08:11:42.781Z,75.06
2022-12-31T08:14:13.302Z,75.16
2022-12-31T08:16:41.697Z,75.14
2022-12-31T08:19:33.541Z,75.03
2022-12-31T08:22:13.617Z,74.96
2022-12-31T08:25:17.098Z,75.15
2022-12-31T08:28:00.208Z,75.15
2022-12-31T08:30:54.396Z,74.78
2022-12-31T08:33:37.455Z,74.57
2022-12-31T08:36:17.556Z,74.42
2022-12-31T08:38:51.653Z,74.62
2022-12-31T08:41:42.632Z,74.63
2022-12-31T08:44:20.938Z,74.99
2022-12-31T08:47:10.958Z,74.99
2022-12-31T08:49:39.127Z,75.01
2022-12-31T08:52:16.160Z,75.00
2022-12-31T08:54:45.102Z,74.95
2022-12-31T08:57:29.967Z,74.87
2022-12-31T09:00:16.809Z,74.94
2022-12-31T09:02:48.016Z,75.02
2022-12-31T09:05:30.941Z,75.03
2022-12-31T09:08:11.240Z,75.15
2022-12-31T09:11:00.406Z,75.13
2022-12-31T09:13:57.268Z,75.55
2022-12-31T09:16:27.949Z,75.94
2022-12-31T09:18:56.128Z,76.07
2022-12-31T09:21:24.638Z,76.33
2022-12-31T09:23:53.435Z,76.84
2022-12-31T09:26:21.337Z,77.11
2022-12-31T09:29:18.801Z,77.62
2022-12-31T09:32:01.819Z,77.87
2022-12-31T09:34:34.627Z,78.27
2022-12-31T09:37:11.260Z,78.93
2022-12-31T09:39:47.948Z,79.18
2022-12-31T09:43:00.474Z,79.38
2022-12-31T09:45:34.721Z,79.71
2022-12-31T09:48:27.667Z,80.00
2022-12-31T09:51:21.760Z,80.63
2022-12-31T09:54:14.440Z,80.94
2022-12-31T09:57:19.070Z,81.09
2022-12-31T10:00:17.896Z,81.49
2022-12-31T10:03:08.227Z,81.71
2022-12-31T10:05:52.923Z,82.08
2022-12-31T10:08:49.882Z,82.36
2022-12-31T10:11:26.687Z,82.67
2022-12-31T10:14:06.486Z,82.74
2022-12-31T10:16:52.626Z,82.79
2022-12-31T10:19:40.157Z,82.88
2022-12-31T10:22:55.168Z,83.01
2022-12-31T10:25:51.137Z,83.26
2022-12-31T10:28:46.622Z,83.50
2022-12-31T10:31:19.934Z,83.50
2022-12-31T10:33:47.913Z,83.65
2022-12-31T10:36:21.179Z,83.94
2022-12-31T10:39:33.874Z,84.22
2022-12-31T10:42:19.811Z,84.90
2022-12-31T10:44:53.791Z,84.80
2022-12-31T10:47:43.429Z,85.09
2022-12-31T10:50:34.457Z,85.42
2022-12-31T10:53:07.979Z,85.74
2022-12-31T10:55:53.289Z,86.08
2022-12-31T10:58:27.189Z,86.39
2022-12-31T11:01:06.911Z,86.66
2022-12-31T11:03:56.707Z,86.67
2022-12-31T11:06:55.785Z,86.84
2022-12-31T11:10:07.602Z,86.93
2022-12-31T11:12:47.220Z,87.02
2022-12-31T11:15:21.279Z,87.01
2022-12-31T11:18:15.647Z,87.15
2022-12-31T11:21:07.012Z,87.25
2022-12-31T11:24:11.728Z,87.34
2022-12-31T11:26:45.765Z,87.46
2022-12-31T11:29:52.084Z,87.78
2022-12-31T11:32:29.167Z,87.84
2022-12-31T11:35:33.023Z,88.19
2022-12-31T11:38:13.208Z,88.15
2022-12-31T11:40:56.667Z,88.29
2022-12-31T11:43:37.307Z,88.09
2022-12-31T11:46:26.900Z,88.22
2022-12-31T11:49:09.054Z,88.17
2022-12-31T11:51:50.704Z,88.12
2022-12-31T11:54:46.313Z,87.95
2022-12-31T11:57:27.225Z,88.05
2022-12-31T12:00:14.863Z,88.36
2022-12-31T12:03:06.613Z,88.18
2022-12-31T12:05:35.949Z,88.19
2022-12-31T12:08:04.007Z,87.98
2022-12-31T12:10:38.178Z,87.73
2022-12-31T12:13:18.080Z,87.58
2022-12-31T12:15:50.568Z,87.59
2022-12-31T12:18:33.495Z,87.55
2022-12-31T12:21:13.712Z,87.62
2022-12-31T12:23:42.982Z,87.77
2022-12-31T12:26:29.785Z,87.69
2022-12-31T12:29:01.599Z,87.70
2022-12-31T12:31:30.908Z,87.56
2022-12-31T12:33:59.101Z,87.56
2022-12-31T12:36:27.087Z,87.69
2022-12-31T12:39:06.135Z,87.66
2022-12-31T12:41:34.244Z,87.69
2022-12-31T12:44:05.303Z,87.71
2022-12-31T12:46:48.375Z,87.71
2022-12-31T12:49:33.125Z,87.56
2022-12-31T12:52:15.277Z,87.59
2022-12-31T12:55:28.269Z,87.40
2022-12-31T12:58:19.304Z,87.37
2022-12-31T13:01:02.790Z,87.20
2022-12-31T13:04:33.435Z,87.25
2022-12-31T13:07:10.062Z,87.27
2022-12-31T13:09:54.255Z,87.40
2022-12-31T13:12:34.413Z,87.29
2022-12-31T13:15:42.956Z,87.23
2022-12-31T13:18:41.334Z,87.17
2022-12-31T13:21:30.919Z,87.27
2022-12-31T13:24:15.797Z,87.30
2022-12-31T13:26:55.208Z,87.19
2022-12-31T13:29:29.384Z,87.35
2022-12-31T13:32:02.024Z,87.11
2022-12-31T13:34:33.877Z,86.88
2022-12-31T13:37:31.463Z,86.73
2022-12-31T13:40:05.924Z,86.69
2022-12-31T13:42:48.376Z,86.74
2022-12-31T13:45:26.940Z,86.98
2022-12-31T13:48:01.206Z,86.84
2022-12-31T13:50:42.977Z,86.69
2022-12-31T13:53:20.457Z,86.80
2022-12-31T13:56:18.669Z,86.88
2022-12-31T13:58:53.295Z,86.97
2022-12-31T14:01:34.212Z,87.14
2022-12-31T14:04:29.062Z,87.12
2022-12-31T14:07:06.256Z,86.96
2022-12-31T14:09:35.579Z,86.71
2022-12-31T14:12:36.085Z,86.50
2022-12-31T14:15:29.028Z,86.44
2022-12-31T14:18:18.084Z,86.17
2022-12-31T14:21:00.381Z,85.95
2022-12-31T14:23:42.213Z,85.89
2022-12-31T14:26:28.077Z,85.97
2022-12-31T14:29:11.726Z,85.91
2022-12-31T14:31:49.103Z,85.87
2022-12-31T14:34:35.549Z,85.79
2022-12-31T14:37:09.553Z,85.83
2022-12-31T14:39:43.406Z,85.97
2022-12-31T14:42:36.808Z,86.13
2022-12-31T14:45:16.110Z,86.06
2022-12-31T14:47:57.703Z,86.25
2022-12-31T14:50:28.961Z,86.09
2022-12-31T14:52:59.898Z,85.96
2022-12-31T14:55:32.369Z,85.85
2022-12-31T14:58:27.014Z,85.75
2022-12-31T15:00:57.212Z,85.76
2022-12-31T15:03:25.544Z,85.76
2022-12-31T15:06:05.007Z,85.51
2022-12-31T15:09:10.842Z,85.21
2022-12-31T15:11:47.871Z,85.34
2022-12-31T15:14:21.532Z,85.19
2022-12-31T15:17:04.509Z,84.89
2022-12-31T15:19:47.967Z,84.86
2022-12-31T15:22:37.449Z,84.86
2022-12-31T15:25:36.783Z,84.82
2022-12-31T15:28:24.885Z,84.67
2022-12-31T15:30:56.141Z,84.68
2022-12-31T15:33:39.167Z,84.31
2022-12-31T15:36:21.460Z,84.39
2022-12-31T15:38:50.985Z,84.44
2022-12-31T15:41:19.075Z,84.24
2022-12-31T15:43:58.575Z,84.01
2022-12-31T15:46:31.846Z,83.87
2022-12-31T15:49:11.788Z,83.75
2022-12-31T15:51:46.532Z,83.82
2022-12-31T15:54:40.066Z,83.82
2022-12-31T15:57:17.330Z,83.94
2022-12-31T15:59:46.187Z,84.03
2022-12-31T16:02:23.415Z,83.82
2022-12-31T16:04:52.884Z,83.77
2022-12-31T16:07:22.467Z,83.91
2022-12-31T16:09:53.829Z,83.96
2022-12-31T16:12:32.753Z,83.74
2022-12-31T16:15:02.769Z,83.80
2022-12-31T16:17:36.594Z,83.55
2022-12-31T16:20:23.417Z,83.68
2022-12-31T16:22:55.034Z,83.72
2022-12-31T16:25:33.047Z,83.47
2022-12-31T16:28:03.872Z,83.13
2022-12-31T16:30:35.977Z,82.96
2022-12-31T16:33:06.872Z,82.53
2022-12-31T16:35:36.913Z,82.44
2022-12-31T16:38:15.295Z,82.63
2022-12-31T16:41:03.237Z,82.39
2022-12-31T16:43:40.514Z,82.23
2022-12-31T16:46:18.275Z,82.27
2022-12-31T16:49:12.090Z,82.15
2022-12-31T16:51:40.322Z,82.28
2022-12-31T16:54:19.044Z,82.12
2022-12-31T16:56:47.677Z,82.20
2022-12-31T16:59:34.875Z,82.21
2022-12-31T17:02:10.016Z,82.31
2022-12-31T17:04:43.196Z,82.37
2022-12-31T17:07:38.763Z,82.56
2022-12-31T17:10:06.662Z,82.77
2022-12-31T17:13:00.912Z,83.01
2022-12-31T17:15:42.103Z,83.00
2022-12-31T17:18:23.072Z,83.28
2022-12-31T17:20:53.835Z,83.24
2022-12-31T17:23:34.079Z,83.32
2022-12-31T17:26:24.004Z,83.35
2022-12-31T17:28:55.473Z,83.22
2022-12-31T17:31:41.072Z,83.11
2022-12-31T17:34:15.164Z,83.41
2022-12-31T17:37:17.635Z,83.60
2022-12-31T17:40:40.956Z,83.91
2022-12-31T17:42:51.652Z,84.34
2022-12-31T17:45:21.882Z,84.43
2022-12-31T17:47:52.709Z,84.51
2022-12-31T17:50:26.513Z,84.29
2022-12-31T17:53:02.690Z,84.26
2022-12-31T17:55:30.782Z,83.98
2022-12-31T17:58:02.508Z,83.65
2022-12-31T18:00:30.727Z,83.33
2022-12-31T18:02:59.565Z,83.27
2022-12-31T18:05:27.632Z,83.20
2022-12-31T18:07:55.977Z,82.80
2022-12-31T18:10:26.740Z,82.65
2022-12-31T18:12:54.798Z,82.59
2022-12-31T18:15:24.939Z,82.45
2022-12-31T18:17:53.040Z,82.10
2022-12-31T18:20:21.288Z,81.77
2022-12-31T18:22:49.368Z,81.80
2022-12-31T18:25:21.718Z,81.72
2022-12-31T18:27:51.375Z,81.39
2022-12-31T18:30:19.642Z,81.13
2022-12-31T18:32:47.976Z,81.03
2022-12-31T18:36:06.684Z,80.78
2022-12-31T18:38:13.659Z,80.74
2022-12-31T18:40:46.776Z,80.81
2022-12-31T18:43:17.602Z,80.81
2022-12-31T18:45:47.176Z,80.74
2022-12-31T18:48:16.309Z,80.74
2022-12-31T18:50:46.141Z,80.68
2022-12-31T18:53:22.447Z,80.71
2022-12-31T18:55:51.907Z,80.72
2022-12-31T18:58:19.983Z,80.69
2022-12-31T19:00:49.167Z,80.38
2022-12-31T19:03:20.160Z,80.36
2022-12-31T19:05:51.144Z,80.33
2022-12-31T19:08:23.624Z,80.36
2022-12-31T19:10:52.512Z,80.41
2022-12-31T19:13:21.321Z,80.54
2022-12-31T19:15:53.535Z,80.72
2022-12-31T19:18:21.647Z,80.81
2022-12-31T19:20:51.777Z,80.97
2022-12-31T19:23:21.601Z,81.12
2022-12-31T19:25:50.589Z,81.17
2022-12-31T19:28:23.998Z,81.25
2022-12-31T19:30:53.136Z,81.21
2022-12-31T19:33:21.374Z,81.17
2022-12-31T19:35:49.855Z,80.99
2022-12-31T19:38:25.368Z,81.18
2022-12-31T19:40:55.675Z,81.44
2022-12-31T19:43:24.120Z,81.54
2022-12-31T19:45:52.625Z,81.72
2022-12-31T19:48:25.967Z,81.80
2022-12-31T19:51:00.777Z,82.16
2022-12-31T19:53:28.941Z,82.67
2022-12-31T19:55:57.015Z,83.02
2022-12-31T19:58:27.077Z,83.14
2022-12-31T20:01:02.487Z,83.28
2022-12-31T20:03:33.406Z,83.37
2022-12-31T20:06:07.417Z,83.56
2022-12-31T20:08:37.632Z,83.71
2022-12-31T20:11:18.117Z,84.01
2022-12-31T20:13:47.763Z,84.72
2022-12-31T20:16:19.279Z,85.32
2022-12-31T20:18:48.039Z,85.68
2022-12-31T20:21:22.547Z,85.98
2022-12-31T20:23:52.686Z,86.17
2022-12-31T20:26:22.474Z,86.46
2022-12-31T20:28:51.214Z,86.75
2022-12-31T20:31:23.453Z,87.27
2022-12-31T20:33:54.515Z,87.71
2022-12-31T20:36:23.816Z,87.82
2022-12-31T20:38:51.966Z,88.05
2022-12-31T20:41:22.803Z,88.25
2022-12-31T20:43:51.590Z,88.46
2022-12-31T20:46:23.005Z,88.84
2022-12-31T20:48:54.425Z,89.11
2022-12-31T20:51:24.165Z,89.60
2022-12-31T20:53:56.041Z,90.07
2022-12-31T20:56:26.345Z,90.46
2022-12-31T20:58:54.540Z,90.60
2022-12-31T21:01:23.467Z,90.68
2022-12-31T21:04:08.228Z,90.78
2022-12-31T21:06:36.454Z,90.80
2022-12-31T21:09:07.055Z,90.88
2022-12-31T21:11:53.936Z,90.97
2022-12-31T21:14:22.446Z,90.92
2022-12-31T21:16:50.530Z,90.84
2022-12-31T21:19:18.686Z,91.04
2022-12-31T21:21:48.408Z,91.03
2022-12-31T21:24:23.284Z,90.96
2022-12-31T21:26:55.355Z,90.89
2022-12-31T21:29:23.811Z,90.90
2022-12-31T21:31:51.807Z,91.01
2022-12-31T21:34:19.744Z,91.30
2022-12-31T21:36:47.922Z,91.80
2022-12-31T21:39:16.007Z,91.86
2022-12-31T21:41:52.885Z,91.52
2022-12-31T21:44:22.742Z,90.97
2022-12-31T21:47:34.011Z,90.52
2022-12-31T21:49:45.917Z,90.12
2022-12-31T21:52:26.758Z,89.55
2022-12-31T21:55:15.419Z,88.98
2022-12-31T21:58:15.495Z,88.57
2022-12-31T22:00:52.992Z,88.33
2022-12-31T22:03:31.829Z,88.08
2022-12-31T22:06:01.928Z,88.00
2022-12-31T22:08:31.671Z,88.10
2022-12-31T22:10:59.734Z,87.88
2022-12-31T22:13:27.772Z,87.53
2022-12-31T22:16:04.341Z,87.19
2022-12-31T22:18:39.032Z,87.23
2022-12-31T22:21:20.608Z,87.20
2022-12-31T22:23:52.241Z,87.34
2022-12-31T22:26:23.709Z,87.42
2022-12-31T22:28:52.677Z,87.67
2022-12-31T22:31:25.137Z,87.96
2022-12-31T22:33:54.020Z,88.12
2022-12-31T22:36:23.801Z,88.34
2022-12-31T22:38:55.996Z,88.60
2022-12-31T22:41:25.608Z,88.77
2022-12-31T22:44:03.047Z,88.75
2022-12-31T22:46:33.906Z,88.81
2022-12-31T22:49:04.584Z,88.79
2022-12-31T22:51:55.827Z,88.77
2022-12-31T22:54:21.614Z,88.91
2022-12-31T22:56:49.936Z,88.89
2022-12-31T22:59:18.046Z,88.70
2022-12-31T23:01:46.347Z,88.61
2022-12-31T23:04:14.548Z,88.54
2022-12-31T23:06:46.122Z,88.52
2022-12-31T23:09:34.598Z,88.51
2022-12-31T23:12:04.834Z,88.44
2022-12-31T23:14:52.235Z,88.53
2022-12-31T23:17:45.498Z,88.41
2022-12-31T23:20:38.675Z,88.47
2022-12-31T23:23:08.961Z,88.47
2022-12-31T23:25:41.935Z,88.21
2022-12-31T23:28:13.717Z,88.00
2022-12-31T23:30:43.061Z,87.85
2022-12-31T23:33:20.730Z,87.81
2022-12-31T23:35:49.093Z,87.44
2022-12-31T23:38:18.646Z,87.38
2022-12-31T23:40:46.778Z,87.27
2022-12-31T23:43:21.729Z,87.00
2022-12-31T23:45:51.250Z,86.66
2022-12-31T23:48:19.590Z,86.61
2022-12-31T23:50:53.897Z,86.51
2022-12-31T23:53:23.472Z,86.49
2022-12-31T23:55:52.918Z,86.27
2022-12-31T23:58:21.357Z,86.51
